sensor_id;sensor_type;location;lat;lon;timestamp;temperature;humidity
15819;DHT22;8010;53.986;12.106;2022-07-21T00:02:07;22.70;99.90
15819;DHT22;8010;53.986;12.106;2022-07-21T00:04:33;22.70;99.90
15819;DHT22;8010;53.986;12.106;2022-07-21T00:06:59;22.70;99.90
15819;DHT22;8010;53.986;12.106;2022-07-21T00:09:25;22.60;99.90
15819;DHT22;8010;53.986;12.106;2022-07-21T00:11:51;22.60;99.90
15819;DHT22;8010;53.986;12.106;2022-07-21T00:14:16;22.40;99.90
15819;DHT22;8010;53.986;12.106;2022-07-21T00:16:43;22.30;99.90
15819;DHT22;8010;53.986;12.106;2022-07-21T00:19:09;22.20;99.90
15819;DHT22;8010;53.986;12.106;2022-07-21T00:21:36;22.10;99.90
15819;DHT22;8010;53.986;12.106;2022-07-21T00:24:02;22.10;99.90
15819;DHT22;8010;53.986;12.106;2022-07-21T00:26:27;22.00;99.90
15819;DHT22;8010;53.986;12.106;2022-07-21T00:28:53;22.00;99.90
15819;DHT22;8010;53.986;12.106;2022-07-21T00:31:19;21.90;99.90
15819;DHT22;8010;53.986;12.106;2022-07-21T00:33:44;21.80;99.90
15819;DHT22;8010;53.986;12.106;2022-07-21T00:36:10;21.70;99.90
15819;DHT22;8010;53.986;12.106;2022-07-21T00:38:35;21.60;99.90
15819;DHT22;8010;53.986;12.106;2022-07-21T00:41:01;21.50;99.90
15819;DHT22;8010;53.986;12.106;2022-07-21T00:43:26;21.30;99.90
15819;DHT22;8010;53.986;12.106;2022-07-21T00:45:53;21.20;99.90
15819;DHT22;8010;53.986;12.106;2022-07-21T00:48:19;21.10;99.90
15819;DHT22;8010;53.986;12.106;2022-07-21T00:50:45;21.00;99.90
15819;DHT22;8010;53.986;12.106;2022-07-21T00:53:10;20.90;99.90
15819;DHT22;8010;53.986;12.106;2022-07-21T00:55:36;20.80;99.90
15819;DHT22;8010;53.986;12.106;2022-07-21T00:58:01;20.70;99.90
15819;DHT22;8010;53.986;12.106;2022-07-21T01:00:29;20.70;99.90
15819;DHT22;8010;53.986;12.106;2022-07-21T01:02:57;20.70;99.90
15819;DHT22;8010;53.986;12.106;2022-07-21T01:05:23;20.70;99.90
15819;DHT22;8010;53.986;12.106;2022-07-21T01:07:53;20.60;99.90
15819;DHT22;8010;53.986;12.106;2022-07-21T01:10:21;20.60;99.90
15819;DHT22;8010;53.986;12.106;2022-07-21T01:12:48;20.60;99.90
15819;DHT22;8010;53.986;12.106;2022-07-21T01:15:15;20.50;99.90
15819;DHT22;8010;53.986;12.106;2022-07-21T01:17:41;20.50;99.90
15819;DHT22;8010;53.986;12.106;2022-07-21T01:20:10;20.40;99.90
15819;DHT22;8010;53.986;12.106;2022-07-21T01:22:38;20.30;99.90
15819;DHT22;8010;53.986;12.106;2022-07-21T01:25:04;20.30;99.90
15819;DHT22;8010;53.986;12.106;2022-07-21T01:27:30;20.30;99.90
15819;DHT22;8010;53.986;12.106;2022-07-21T01:29:56;20.30;99.90
15819;DHT22;8010;53.986;12.106;2022-07-21T01:32:22;20.30;99.90
15819;DHT22;8010;53.986;12.106;2022-07-21T01:34:48;20.30;99.90
15819;DHT22;8010;53.986;12.106;2022-07-21T01:37:14;20.20;99.90
15819;DHT22;8010;53.986;12.106;2022-07-21T01:39:40;20.20;99.90
15819;DHT22;8010;53.986;12.106;2022-07-21T01:42:24;20.10;99.90
15819;DHT22;8010;53.986;12.106;2022-07-21T01:44:50;20.00;99.90
15819;DHT22;8010;53.986;12.106;2022-07-21T01:47:16;19.90;99.90
15819;DHT22;8010;53.986;12.106;2022-07-21T01:49:43;19.90;99.90
15819;DHT22;8010;53.986;12.106;2022-07-21T01:52:09;19.80;99.90
15819;DHT22;8010;53.986;12.106;2022-07-21T01:54:34;19.70;99.90
15819;DHT22;8010;53.986;12.106;2022-07-21T01:57:00;19.70;99.90
15819;DHT22;8010;53.986;12.106;2022-07-21T01:59:25;19.60;99.90
15819;DHT22;8010;53.986;12.106;2022-07-21T02:01:51;19.60;99.90
15819;DHT22;8010;53.986;12.106;2022-07-21T02:04:17;19.50;99.90
15819;DHT22;8010;53.986;12.106;2022-07-21T02:06:42;19.50;99.90
15819;DHT22;8010;53.986;12.106;2022-07-21T02:09:08;19.50;99.90
15819;DHT22;8010;53.986;12.106;2022-07-21T02:11:34;19.50;99.90
15819;DHT22;8010;53.986;12.106;2022-07-21T02:13:59;19.50;99.90
15819;DHT22;8010;53.986;12.106;2022-07-21T02:16:25;19.40;99.90
15819;DHT22;8010;53.986;12.106;2022-07-21T02:18:50;19.30;99.90
15819;DHT22;8010;53.986;12.106;2022-07-21T02:21:16;19.30;99.90
15819;DHT22;8010;53.986;12.106;2022-07-21T02:23:42;19.20;99.90
15819;DHT22;8010;53.986;12.106;2022-07-21T02:26:07;19.20;99.90
15819;DHT22;8010;53.986;12.106;2022-07-21T02:28:33;19.10;99.90
15819;DHT22;8010;53.986;12.106;2022-07-21T02:30:58;19.10;99.90
15819;DHT22;8010;53.986;12.106;2022-07-21T02:33:24;19.00;99.90
15819;DHT22;8010;53.986;12.106;2022-07-21T02:35:49;18.90;99.90
15819;DHT22;8010;53.986;12.106;2022-07-21T02:38:15;19.80;99.90
15819;DHT22;8010;53.986;12.106;2022-07-21T02:40:41;18.80;99.90
15819;DHT22;8010;53.986;12.106;2022-07-21T02:43:07;18.90;99.90
15819;DHT22;8010;53.986;12.106;2022-07-21T02:45:34;18.80;99.90
15819;DHT22;8010;53.986;12.106;2022-07-21T02:48:05;20.00;99.90
15819;DHT22;8010;53.986;12.106;2022-07-21T02:50:33;18.70;99.90
15819;DHT22;8010;53.986;12.106;2022-07-21T02:53:00;18.60;99.90
15819;DHT22;8010;53.986;12.106;2022-07-21T02:55:27;18.60;99.90
15819;DHT22;8010;53.986;12.106;2022-07-21T02:58:06;18.60;99.90
15819;DHT22;8010;53.986;12.106;2022-07-21T03:00:34;18.60;99.90
15819;DHT22;8010;53.986;12.106;2022-07-21T03:02:59;18.50;99.90
15819;DHT22;8010;53.986;12.106;2022-07-21T03:05:25;18.50;99.90
15819;DHT22;8010;53.986;12.106;2022-07-21T03:07:50;18.50;99.90
15819;DHT22;8010;53.986;12.106;2022-07-21T03:10:16;18.40;99.90
15819;DHT22;8010;53.986;12.106;2022-07-21T03:12:42;18.40;99.90
15819;DHT22;8010;53.986;12.106;2022-07-21T03:15:08;18.40;99.90
15819;DHT22;8010;53.986;12.106;2022-07-21T03:17:34;18.30;99.90
15819;DHT22;8010;53.986;12.106;2022-07-21T03:20:00;18.30;99.90
15819;DHT22;8010;53.986;12.106;2022-07-21T03:22:25;18.30;99.90
15819;DHT22;8010;53.986;12.106;2022-07-21T03:24:51;18.30;99.90
15819;DHT22;8010;53.986;12.106;2022-07-21T03:27:17;18.30;99.90
15819;DHT22;8010;53.986;12.106;2022-07-21T03:29:43;18.30;99.90
15819;DHT22;8010;53.986;12.106;2022-07-21T03:32:08;18.30;99.90
15819;DHT22;8010;53.986;12.106;2022-07-21T03:34:34;18.20;99.90
15819;DHT22;8010;53.986;12.106;2022-07-21T03:36:59;18.20;99.90
15819;DHT22;8010;53.986;12.106;2022-07-21T03:39:25;18.30;99.90
15819;DHT22;8010;53.986;12.106;2022-07-21T03:41:50;18.20;99.90
15819;DHT22;8010;53.986;12.106;2022-07-21T03:44:16;18.30;99.90
15819;DHT22;8010;53.986;12.106;2022-07-21T03:46:41;18.30;99.90
15819;DHT22;8010;53.986;12.106;2022-07-21T03:49:07;18.30;99.90
15819;DHT22;8010;53.986;12.106;2022-07-21T03:51:32;18.30;99.90
15819;DHT22;8010;53.986;12.106;2022-07-21T03:53:58;18.30;99.90
15819;DHT22;8010;53.986;12.106;2022-07-21T03:56:24;18.30;99.90
15819;DHT22;8010;53.986;12.106;2022-07-21T03:58:50;18.30;99.90
15819;DHT22;8010;53.986;12.106;2022-07-21T04:01:15;18.30;99.90
15819;DHT22;8010;53.986;12.106;2022-07-21T04:03:41;18.30;99.90
15819;DHT22;8010;53.986;12.106;2022-07-21T04:06:07;18.20;99.90
15819;DHT22;8010;53.986;12.106;2022-07-21T04:08:35;18.20;99.90
15819;DHT22;8010;53.986;12.106;2022-07-21T04:11:01;18.20;99.90
15819;DHT22;8010;53.986;12.106;2022-07-21T04:13:27;18.20;99.90
15819;DHT22;8010;53.986;12.106;2022-07-21T04:15:52;18.10;99.90
15819;DHT22;8010;53.986;12.106;2022-07-21T04:18:18;18.20;99.90
15819;DHT22;8010;53.986;12.106;2022-07-21T04:20:43;18.20;99.90
15819;DHT22;8010;53.986;12.106;2022-07-21T04:23:09;18.30;99.90
15819;DHT22;8010;53.986;12.106;2022-07-21T04:25:34;18.30;99.90
15819;DHT22;8010;53.986;12.106;2022-07-21T04:28:01;18.30;99.90
15819;DHT22;8010;53.986;12.106;2022-07-21T04:30:27;18.40;99.90
15819;DHT22;8010;53.986;12.106;2022-07-21T04:32:52;18.50;99.90
15819;DHT22;8010;53.986;12.106;2022-07-21T04:35:18;18.50;99.90
15819;DHT22;8010;53.986;12.106;2022-07-21T04:37:44;18.60;99.90
15819;DHT22;8010;53.986;12.106;2022-07-21T04:40:11;18.70;99.90
15819;DHT22;8010;53.986;12.106;2022-07-21T04:42:38;18.70;99.90
15819;DHT22;8010;53.986;12.106;2022-07-21T04:45:05;18.80;99.90
15819;DHT22;8010;53.986;12.106;2022-07-21T04:47:31;18.90;99.90
15819;DHT22;8010;53.986;12.106;2022-07-21T04:49:56;19.00;99.90
15819;DHT22;8010;53.986;12.106;2022-07-21T04:52:22;19.10;99.90
15819;DHT22;8010;53.986;12.106;2022-07-21T04:54:48;19.20;99.90
15819;DHT22;8010;53.986;12.106;2022-07-21T04:57:13;19.30;99.90
15819;DHT22;8010;53.986;12.106;2022-07-21T04:59:39;19.40;99.90
15819;DHT22;8010;53.986;12.106;2022-07-21T05:02:04;19.50;99.90
15819;DHT22;8010;53.986;12.106;2022-07-21T05:04:30;19.70;99.90
15819;DHT22;8010;53.986;12.106;2022-07-21T05:06:56;19.80;99.90
15819;DHT22;8010;53.986;12.106;2022-07-21T05:09:21;20.00;99.90
15819;DHT22;8010;53.986;12.106;2022-07-21T05:11:47;20.10;99.90
15819;DHT22;8010;53.986;12.106;2022-07-21T05:14:13;20.30;99.90
15819;DHT22;8010;53.986;12.106;2022-07-21T05:16:38;20.40;99.90
15819;DHT22;8010;53.986;12.106;2022-07-21T05:19:04;20.50;99.90
15819;DHT22;8010;53.986;12.106;2022-07-21T05:21:29;20.70;99.90
15819;DHT22;8010;53.986;12.106;2022-07-21T05:23:55;20.70;99.90
15819;DHT22;8010;53.986;12.106;2022-07-21T05:26:21;20.80;99.90
15819;DHT22;8010;53.986;12.106;2022-07-21T05:28:47;20.90;99.90
15819;DHT22;8010;53.986;12.106;2022-07-21T05:31:13;20.90;99.90
15819;DHT22;8010;53.986;12.106;2022-07-21T05:33:39;21.00;99.90
15819;DHT22;8010;53.986;12.106;2022-07-21T05:36:05;21.00;99.90
15819;DHT22;8010;53.986;12.106;2022-07-21T05:38:31;21.10;99.90
15819;DHT22;8010;53.986;12.106;2022-07-21T05:40:56;21.20;99.90
15819;DHT22;8010;53.986;12.106;2022-07-21T05:43:25;21.20;99.90
15819;DHT22;8010;53.986;12.106;2022-07-21T05:45:51;21.20;99.90
15819;DHT22;8010;53.986;12.106;2022-07-21T05:48:16;21.20;99.90
15819;DHT22;8010;53.986;12.106;2022-07-21T05:50:43;21.30;99.90
15819;DHT22;8010;53.986;12.106;2022-07-21T05:53:08;21.30;99.90
15819;DHT22;8010;53.986;12.106;2022-07-21T05:55:34;21.40;99.90
15819;DHT22;8010;53.986;12.106;2022-07-21T05:57:59;21.40;99.90
15819;DHT22;8010;53.986;12.106;2022-07-21T06:00:25;21.40;99.90
15819;DHT22;8010;53.986;12.106;2022-07-21T06:02:50;21.50;99.90
15819;DHT22;8010;53.986;12.106;2022-07-21T06:05:16;21.50;99.90
15819;DHT22;8010;53.986;12.106;2022-07-21T06:07:42;21.50;99.90
15819;DHT22;8010;53.986;12.106;2022-07-21T06:10:08;21.50;99.90
15819;DHT22;8010;53.986;12.106;2022-07-21T06:12:34;21.50;99.90
15819;DHT22;8010;53.986;12.106;2022-07-21T06:14:59;21.60;99.90
15819;DHT22;8010;53.986;12.106;2022-07-21T06:17:25;21.70;99.90
15819;DHT22;8010;53.986;12.106;2022-07-21T06:19:50;21.90;99.90
15819;DHT22;8010;53.986;12.106;2022-07-21T06:22:16;22.10;99.90
15819;DHT22;8010;53.986;12.106;2022-07-21T06:24:42;22.00;99.90
15819;DHT22;8010;53.986;12.106;2022-07-21T06:27:07;22.30;99.90
15819;DHT22;8010;53.986;12.106;2022-07-21T06:29:34;22.50;99.90
15819;DHT22;8010;53.986;12.106;2022-07-21T06:32:00;22.70;99.90
15819;DHT22;8010;53.986;12.106;2022-07-21T06:34:26;22.90;99.90
15819;DHT22;8010;53.986;12.106;2022-07-21T06:36:51;23.00;99.90
15819;DHT22;8010;53.986;12.106;2022-07-21T06:39:17;23.10;99.90
15819;DHT22;8010;53.986;12.106;2022-07-21T06:41:42;23.00;99.90
15819;DHT22;8010;53.986;12.106;2022-07-21T06:44:08;22.80;99.90
15819;DHT22;8010;53.986;12.106;2022-07-21T06:46:34;22.70;99.90
15819;DHT22;8010;53.986;12.106;2022-07-21T06:49:00;22.60;99.90
15819;DHT22;8010;53.986;12.106;2022-07-21T06:51:26;22.70;99.90
15819;DHT22;8010;53.986;12.106;2022-07-21T06:53:51;22.80;99.90
15819;DHT22;8010;53.986;12.106;2022-07-21T06:56:18;23.00;99.90
15819;DHT22;8010;53.986;12.106;2022-07-21T06:58:43;23.80;99.90
15819;DHT22;8010;53.986;12.106;2022-07-21T07:01:09;23.20;99.90
15819;DHT22;8010;53.986;12.106;2022-07-21T07:03:35;23.30;99.90
15819;DHT22;8010;53.986;12.106;2022-07-21T07:06:01;23.30;99.90
15819;DHT22;8010;53.986;12.106;2022-07-21T07:08:26;25.60;99.90
15819;DHT22;8010;53.986;12.106;2022-07-21T07:10:52;25.20;99.90
15819;DHT22;8010;53.986;12.106;2022-07-21T07:13:17;23.80;99.90
15819;DHT22;8010;53.986;12.106;2022-07-21T07:15:44;24.00;99.90
15819;DHT22;8010;53.986;12.106;2022-07-21T07:18:09;24.00;99.90
15819;DHT22;8010;53.986;12.106;2022-07-21T07:20:35;24.00;99.90
15819;DHT22;8010;53.986;12.106;2022-07-21T07:23:01;24.20;99.90
15819;DHT22;8010;53.986;12.106;2022-07-21T07:25:26;24.20;99.90
15819;DHT22;8010;53.986;12.106;2022-07-21T07:27:52;24.20;99.90
15819;DHT22;8010;53.986;12.106;2022-07-21T07:30:19;24.20;99.90
15819;DHT22;8010;53.986;12.106;2022-07-21T07:32:45;24.20;99.90
15819;DHT22;8010;53.986;12.106;2022-07-21T07:35:14;24.20;99.90
15819;DHT22;8010;53.986;12.106;2022-07-21T07:37:42;24.30;99.90
15819;DHT22;8010;53.986;12.106;2022-07-21T07:40:11;24.30;99.90
15819;DHT22;8010;53.986;12.106;2022-07-21T07:42:38;24.20;99.90
15819;DHT22;8010;53.986;12.106;2022-07-21T07:45:05;24.00;99.90
15819;DHT22;8010;53.986;12.106;2022-07-21T07:47:31;23.70;99.90
15819;DHT22;8010;53.986;12.106;2022-07-21T07:49:57;23.40;99.90
15819;DHT22;8010;53.986;12.106;2022-07-21T07:52:23;23.30;99.90
15819;DHT22;8010;53.986;12.106;2022-07-21T07:54:49;23.20;99.90
15819;DHT22;8010;53.986;12.106;2022-07-21T07:57:14;23.20;99.90
15819;DHT22;8010;53.986;12.106;2022-07-21T07:59:40;23.30;99.90
15819;DHT22;8010;53.986;12.106;2022-07-21T08:02:05;23.20;99.90
15819;DHT22;8010;53.986;12.106;2022-07-21T08:04:31;23.10;99.90
15819;DHT22;8010;53.986;12.106;2022-07-21T08:06:56;23.10;99.90
15819;DHT22;8010;53.986;12.106;2022-07-21T08:09:22;23.10;99.90
15819;DHT22;8010;53.986;12.106;2022-07-21T08:11:48;23.40;99.90
15819;DHT22;8010;53.986;12.106;2022-07-21T08:14:14;23.30;99.90
15819;DHT22;8010;53.986;12.106;2022-07-21T08:16:40;23.50;99.90
15819;DHT22;8010;53.986;12.106;2022-07-21T08:19:06;23.60;99.90
15819;DHT22;8010;53.986;12.106;2022-07-21T08:21:32;23.80;99.90
15819;DHT22;8010;53.986;12.106;2022-07-21T08:23:59;23.80;99.90
15819;DHT22;8010;53.986;12.106;2022-07-21T08:26:25;23.70;99.90
15819;DHT22;8010;53.986;12.106;2022-07-21T08:28:54;23.70;99.90
15819;DHT22;8010;53.986;12.106;2022-07-21T08:31:20;23.70;99.90
15819;DHT22;8010;53.986;12.106;2022-07-21T08:33:46;23.80;99.90
15819;DHT22;8010;53.986;12.106;2022-07-21T08:36:11;24.10;99.90
15819;DHT22;8010;53.986;12.106;2022-07-21T08:38:37;24.40;99.90
15819;DHT22;8010;53.986;12.106;2022-07-21T08:41:03;24.60;99.90
15819;DHT22;8010;53.986;12.106;2022-07-21T08:43:30;25.00;99.90
15819;DHT22;8010;53.986;12.106;2022-07-21T08:45:55;25.20;99.90
15819;DHT22;8010;53.986;12.106;2022-07-21T08:48:24;25.20;99.90
15819;DHT22;8010;53.986;12.106;2022-07-21T08:50:50;25.10;99.90
15819;DHT22;8010;53.986;12.106;2022-07-21T08:53:15;25.00;99.90
15819;DHT22;8010;53.986;12.106;2022-07-21T08:55:41;25.30;99.90
15819;DHT22;8010;53.986;12.106;2022-07-21T08:58:08;25.50;99.90
15819;DHT22;8010;53.986;12.106;2022-07-21T09:00:39;25.70;99.90
15819;DHT22;8010;53.986;12.106;2022-07-21T09:05:58;25.20;99.90
15819;DHT22;8010;53.986;12.106;2022-07-21T09:08:33;25.20;99.90
15819;DHT22;8010;53.986;12.106;2022-07-21T09:11:13;25.30;99.90
15819;DHT22;8010;53.986;12.106;2022-07-21T09:13:41;25.30;99.90
15819;DHT22;8010;53.986;12.106;2022-07-21T09:16:06;25.10;99.90
15819;DHT22;8010;53.986;12.106;2022-07-21T09:18:32;24.90;99.90
15819;DHT22;8010;53.986;12.106;2022-07-21T09:20:58;25.10;99.90
15819;DHT22;8010;53.986;12.106;2022-07-21T09:23:25;25.20;99.90
15819;DHT22;8010;53.986;12.106;2022-07-21T09:25:53;25.20;99.90
15819;DHT22;8010;53.986;12.106;2022-07-21T09:28:21;25.40;99.90
15819;DHT22;8010;53.986;12.106;2022-07-21T09:31:05;25.70;99.90
15819;DHT22;8010;53.986;12.106;2022-07-21T09:33:41;25.80;99.90
15819;DHT22;8010;53.986;12.106;2022-07-21T09:36:14;25.70;99.90
15819;DHT22;8010;53.986;12.106;2022-07-21T09:38:50;25.90;99.90
15819;DHT22;8010;53.986;12.106;2022-07-21T09:41:20;25.70;99.90
15819;DHT22;8010;53.986;12.106;2022-07-21T09:43:54;25.40;99.90
15819;DHT22;8010;53.986;12.106;2022-07-21T09:46:24;25.20;99.90
15819;DHT22;8010;53.986;12.106;2022-07-21T09:48:55;25.40;99.90
15819;DHT22;8010;53.986;12.106;2022-07-21T09:53:52;25.50;99.90
15819;DHT22;8010;53.986;12.106;2022-07-21T09:56:19;25.70;99.90
15819;DHT22;8010;53.986;12.106;2022-07-21T09:58:47;25.90;99.90
15819;DHT22;8010;53.986;12.106;2022-07-21T10:01:13;25.70;99.90
15819;DHT22;8010;53.986;12.106;2022-07-21T10:03:39;25.70;99.90
15819;DHT22;8010;53.986;12.106;2022-07-21T10:06:05;25.90;99.90
15819;DHT22;8010;53.986;12.106;2022-07-21T10:08:33;26.00;99.90
15819;DHT22;8010;53.986;12.106;2022-07-21T10:11:00;26.00;99.90
15819;DHT22;8010;53.986;12.106;2022-07-21T10:13:27;25.60;99.90
15819;DHT22;8010;53.986;12.106;2022-07-21T10:15:53;25.90;99.90
15819;DHT22;8010;53.986;12.106;2022-07-21T10:18:22;25.90;99.90
15819;DHT22;8010;53.986;12.106;2022-07-21T10:20:55;26.00;99.90
15819;DHT22;8010;53.986;12.106;2022-07-21T10:23:41;27.90;99.90
15819;DHT22;8010;53.986;12.106;2022-07-21T10:26:08;26.30;99.90
15819;DHT22;8010;53.986;12.106;2022-07-21T10:28:34;26.50;99.90
15819;DHT22;8010;53.986;12.106;2022-07-21T10:31:13;26.50;99.90
15819;DHT22;8010;53.986;12.106;2022-07-21T10:36:12;26.30;99.90
15819;DHT22;8010;53.986;12.106;2022-07-21T10:41:48;26.60;99.90
15819;DHT22;8010;53.986;12.106;2022-07-21T10:44:40;27.00;99.90
15819;DHT22;8010;53.986;12.106;2022-07-21T10:47:16;27.40;99.90
15819;DHT22;8010;53.986;12.106;2022-07-21T10:55:25;29.00;99.90
15819;DHT22;8010;53.986;12.106;2022-07-21T11:00:36;29.00;99.90
15819;DHT22;8010;53.986;12.106;2022-07-21T11:03:35;28.70;99.90
15819;DHT22;8010;53.986;12.106;2022-07-21T11:06:24;29.00;99.90
15819;DHT22;8010;53.986;12.106;2022-07-21T11:11:28;28.90;99.90
15819;DHT22;8010;53.986;12.106;2022-07-21T11:14:11;29.10;99.90
15819;DHT22;8010;53.986;12.106;2022-07-21T11:19:47;29.10;99.90
15819;DHT22;8010;53.986;12.106;2022-07-21T11:22:20;29.40;99.90
15819;DHT22;8010;53.986;12.106;2022-07-21T11:27:22;29.40;99.90
15819;DHT22;8010;53.986;12.106;2022-07-21T11:29:49;29.20;99.90
15819;DHT22;8010;53.986;12.106;2022-07-21T11:32:16;28.80;99.90
15819;DHT22;8010;53.986;12.106;2022-07-21T11:34:44;29.50;99.90
15819;DHT22;8010;53.986;12.106;2022-07-21T11:37:12;28.20;99.90
15819;DHT22;8010;53.986;12.106;2022-07-21T11:39:38;28.20;99.90
15819;DHT22;8010;53.986;12.106;2022-07-21T11:42:06;28.20;99.90
15819;DHT22;8010;53.986;12.106;2022-07-21T11:44:32;27.90;99.90
15819;DHT22;8010;53.986;12.106;2022-07-21T11:47:00;27.80;99.90
15819;DHT22;8010;53.986;12.106;2022-07-21T11:49:26;27.80;99.90
15819;DHT22;8010;53.986;12.106;2022-07-21T11:52:07;28.20;99.90
15819;DHT22;8010;53.986;12.106;2022-07-21T11:54:38;28.60;99.90
15819;DHT22;8010;53.986;12.106;2022-07-21T11:57:07;28.80;99.90
15819;DHT22;8010;53.986;12.106;2022-07-21T11:59:33;29.30;99.90
15819;DHT22;8010;53.986;12.106;2022-07-21T12:02:05;29.70;99.90
15819;DHT22;8010;53.986;12.106;2022-07-21T12:04:37;29.60;99.90
15819;DHT22;8010;53.986;12.106;2022-07-21T12:07:15;29.40;99.90
15819;DHT22;8010;53.986;12.106;2022-07-21T12:09:43;28.90;99.90
15819;DHT22;8010;53.986;12.106;2022-07-21T12:12:09;28.30;99.90
15819;DHT22;8010;53.986;12.106;2022-07-21T12:14:45;27.90;99.90
15819;DHT22;8010;53.986;12.106;2022-07-21T12:17:11;27.60;99.90
15819;DHT22;8010;53.986;12.106;2022-07-21T12:19:37;27.40;99.90
15819;DHT22;8010;53.986;12.106;2022-07-21T12:22:02;27.20;99.90
15819;DHT22;8010;53.986;12.106;2022-07-21T12:24:52;27.50;99.90
15819;DHT22;8010;53.986;12.106;2022-07-21T12:27:18;27.10;99.90
15819;DHT22;8010;53.986;12.106;2022-07-21T12:29:44;27.20;99.90
15819;DHT22;8010;53.986;12.106;2022-07-21T12:32:09;27.40;99.90
15819;DHT22;8010;53.986;12.106;2022-07-21T12:34:49;27.40;99.90
15819;DHT22;8010;53.986;12.106;2022-07-21T12:37:15;27.40;99.90
15819;DHT22;8010;53.986;12.106;2022-07-21T12:39:40;27.40;99.90
15819;DHT22;8010;53.986;12.106;2022-07-21T12:42:32;27.30;99.90
15819;DHT22;8010;53.986;12.106;2022-07-21T12:44:59;27.20;99.90
15819;DHT22;8010;53.986;12.106;2022-07-21T12:47:25;27.20;99.90
15819;DHT22;8010;53.986;12.106;2022-07-21T12:50:00;27.10;99.90
15819;DHT22;8010;53.986;12.106;2022-07-21T12:52:27;26.90;99.90
15819;DHT22;8010;53.986;12.106;2022-07-21T12:54:54;26.90;99.90
15819;DHT22;8010;53.986;12.106;2022-07-21T12:57:19;26.90;99.90
15819;DHT22;8010;53.986;12.106;2022-07-21T12:59:45;26.70;99.90
15819;DHT22;8010;53.986;12.106;2022-07-21T13:02:10;26.70;99.90
15819;DHT22;8010;53.986;12.106;2022-07-21T13:04:36;26.50;99.90
15819;DHT22;8010;53.986;12.106;2022-07-21T13:07:02;26.50;99.90
15819;DHT22;8010;53.986;12.106;2022-07-21T13:09:28;26.50;99.90
15819;DHT22;8010;53.986;12.106;2022-07-21T13:11:53;26.40;99.90
15819;DHT22;8010;53.986;12.106;2022-07-21T13:14:19;26.40;99.90
15819;DHT22;8010;53.986;12.106;2022-07-21T13:16:44;26.50;99.90
15819;DHT22;8010;53.986;12.106;2022-07-21T13:19:10;26.70;99.90
15819;DHT22;8010;53.986;12.106;2022-07-21T13:21:35;27.20;99.90
15819;DHT22;8010;53.986;12.106;2022-07-21T13:24:01;27.90;99.90
15819;DHT22;8010;53.986;12.106;2022-07-21T13:26:26;28.50;99.90
15819;DHT22;8010;53.986;12.106;2022-07-21T13:28:53;28.70;99.90
15819;DHT22;8010;53.986;12.106;2022-07-21T13:31:19;29.20;99.90
15819;DHT22;8010;53.986;12.106;2022-07-21T13:33:45;29.30;99.90
15819;DHT22;8010;53.986;12.106;2022-07-21T13:36:12;29.60;99.90
15819;DHT22;8010;53.986;12.106;2022-07-21T13:38:38;29.80;99.90
15819;DHT22;8010;53.986;12.106;2022-07-21T13:41:05;29.90;99.90
15819;DHT22;8010;53.986;12.106;2022-07-21T13:43:31;30.10;99.90
15819;DHT22;8010;53.986;12.106;2022-07-21T13:45:57;30.40;99.90
15819;DHT22;8010;53.986;12.106;2022-07-21T13:48:23;30.70;99.90
15819;DHT22;8010;53.986;12.106;2022-07-21T13:50:48;30.90;99.90
15819;DHT22;8010;53.986;12.106;2022-07-21T13:53:14;31.10;99.90
15819;DHT22;8010;53.986;12.106;2022-07-21T13:55:39;31.40;99.90
15819;DHT22;8010;53.986;12.106;2022-07-21T13:58:05;31.50;99.90
15819;DHT22;8010;53.986;12.106;2022-07-21T14:00:32;31.80;99.90
15819;DHT22;8010;53.986;12.106;2022-07-21T14:02:58;31.70;99.90
15819;DHT22;8010;53.986;12.106;2022-07-21T14:05:23;31.60;99.90
15819;DHT22;8010;53.986;12.106;2022-07-21T14:07:49;31.50;99.90
15819;DHT22;8010;53.986;12.106;2022-07-21T14:10:15;31.30;99.90
15819;DHT22;8010;53.986;12.106;2022-07-21T14:12:41;31.20;99.90
15819;DHT22;8010;53.986;12.106;2022-07-21T14:15:07;31.00;99.90
15819;DHT22;8010;53.986;12.106;2022-07-21T14:17:33;30.70;99.90
15819;DHT22;8010;53.986;12.106;2022-07-21T14:19:59;30.40;99.90
15819;DHT22;8010;53.986;12.106;2022-07-21T14:22:25;30.20;99.90
15819;DHT22;8010;53.986;12.106;2022-07-21T14:24:50;29.90;99.90
15819;DHT22;8010;53.986;12.106;2022-07-21T14:27:34;29.60;99.90
15819;DHT22;8010;53.986;12.106;2022-07-21T14:30:00;29.30;99.90
15819;DHT22;8010;53.986;12.106;2022-07-21T14:32:26;29.20;99.90
15819;DHT22;8010;53.986;12.106;2022-07-21T14:34:52;29.00;99.90
15819;DHT22;8010;53.986;12.106;2022-07-21T14:37:18;28.90;99.90
15819;DHT22;8010;53.986;12.106;2022-07-21T14:39:45;28.60;99.90
15819;DHT22;8010;53.986;12.106;2022-07-21T14:42:11;28.60;99.90
15819;DHT22;8010;53.986;12.106;2022-07-21T14:44:36;28.60;99.90
15819;DHT22;8010;53.986;12.106;2022-07-21T14:47:02;28.50;99.90
15819;DHT22;8010;53.986;12.106;2022-07-21T14:49:28;28.60;99.90
15819;DHT22;8010;53.986;12.106;2022-07-21T14:51:53;28.60;99.90
15819;DHT22;8010;53.986;12.106;2022-07-21T14:54:19;28.70;99.90
15819;DHT22;8010;53.986;12.106;2022-07-21T14:56:44;28.90;99.90
15819;DHT22;8010;53.986;12.106;2022-07-21T14:59:11;28.90;99.90
15819;DHT22;8010;53.986;12.106;2022-07-21T15:01:36;28.80;99.90
15819;DHT22;8010;53.986;12.106;2022-07-21T15:04:02;28.70;99.90
15819;DHT22;8010;53.986;12.106;2022-07-21T15:06:28;28.60;99.90
15819;DHT22;8010;53.986;12.106;2022-07-21T15:08:53;28.50;99.90
15819;DHT22;8010;53.986;12.106;2022-07-21T15:11:19;28.40;99.90
15819;DHT22;8010;53.986;12.106;2022-07-21T15:13:44;28.40;99.90
15819;DHT22;8010;53.986;12.106;2022-07-21T15:16:10;28.40;99.90
15819;DHT22;8010;53.986;12.106;2022-07-21T15:18:36;28.40;99.90
15819;DHT22;8010;53.986;12.106;2022-07-21T15:21:01;28.40;99.90
15819;DHT22;8010;53.986;12.106;2022-07-21T15:23:27;28.40;99.90
15819;DHT22;8010;53.986;12.106;2022-07-21T15:25:52;28.50;99.90
15819;DHT22;8010;53.986;12.106;2022-07-21T15:28:18;28.50;99.90
15819;DHT22;8010;53.986;12.106;2022-07-21T15:30:43;28.60;99.90
15819;DHT22;8010;53.986;12.106;2022-07-21T15:33:09;28.60;99.90
15819;DHT22;8010;53.986;12.106;2022-07-21T15:35:35;28.50;99.90
15819;DHT22;8010;53.986;12.106;2022-07-21T15:38:00;28.40;99.90
15819;DHT22;8010;53.986;12.106;2022-07-21T15:40:26;28.40;99.90
15819;DHT22;8010;53.986;12.106;2022-07-21T15:42:52;28.30;99.90
15819;DHT22;8010;53.986;12.106;2022-07-21T15:45:18;28.30;99.90
15819;DHT22;8010;53.986;12.106;2022-07-21T15:47:43;28.20;99.90
15819;DHT22;8010;53.986;12.106;2022-07-21T15:50:09;28.00;99.90
15819;DHT22;8010;53.986;12.106;2022-07-21T15:52:35;28.00;99.90
15819;DHT22;8010;53.986;12.106;2022-07-21T15:55:06;27.80;99.90
15819;DHT22;8010;53.986;12.106;2022-07-21T15:57:32;27.70;99.90